createdAt,value
2024-03-20T00:00:57.664Z,60.01
2024-03-20T00:01:57.744Z,59.93
2024-03-20T00:02:57.729Z,58.97
2024-03-20T00:03:57.873Z,59.77
2024-03-20T00:04:57.951Z,59.11
2024-03-20T00:05:57.976Z,58.77
2024-03-20T00:06:58.066Z,59.17
2024-03-20T00:07:58.124Z,57.64
2024-03-20T00:08:58.224Z,59.32
2024-03-20T00:09:58.293Z,57.21
2024-03-20T00:10:58.361Z,59.62
2024-03-20T00:11:58.437Z,58.89
2024-03-20T00:12:58.478Z,58.15
2024-03-20T00:13:58.569Z,58.90
2024-03-20T00:14:58.633Z,59.90
2024-03-20T00:15:58.711Z,57.30
2024-03-20T00:16:58.762Z,59.95
2024-03-20T00:17:58.827Z,57.53
2024-03-20T00:18:58.901Z,58.10
2024-03-20T00:19:58.989Z,58.68
2024-03-20T00:20:59.059Z,57.29
2024-03-20T00:21:59.170Z,59.04
2024-03-20T00:22:59.211Z,58.78
2024-03-20T00:23:59.330Z,58.96
2024-03-20T00:24:59.318Z,57.22
2024-03-20T00:25:59.411Z,59.75
2024-03-20T00:26:59.467Z,57.41
2024-03-20T00:27:59.537Z,57.14
2024-03-20T00:28:59.587Z,58.07
2024-03-20T00:29:59.688Z,59.35
2024-03-20T00:30:59.762Z,58.11
2024-03-20T00:31:59.817Z,59.17
2024-03-20T00:32:59.872Z,57.63
2024-03-20T00:33:59.962Z,57.45
2024-03-20T00:35:00.031Z,61.17
2024-03-20T00:36:00.123Z,57.00
2024-03-20T00:37:00.197Z,57.82
2024-03-20T00:38:00.294Z,59.53
2024-03-20T00:39:00.380Z,58.14
2024-03-20T00:40:00.435Z,59.41
2024-03-20T00:41:00.491Z,59.95
2024-03-20T00:42:00.584Z,58.97
2024-03-20T00:43:00.652Z,58.06
2024-03-20T00:44:00.706Z,57.87
2024-03-20T00:45:00.809Z,58.65
2024-03-20T00:46:00.920Z,58.45
2024-03-20T00:47:00.946Z,57.31
2024-03-20T00:48:01.033Z,57.86
2024-03-20T00:49:01.126Z,59.83
2024-03-20T00:50:01.159Z,59.09
2024-03-20T00:51:01.270Z,57.01
2024-03-20T00:52:01.362Z,60.27
2024-03-20T00:53:01.395Z,59.65
2024-03-20T00:54:01.528Z,57.56
2024-03-20T00:55:01.560Z,61.01
2024-03-20T00:56:01.675Z,59.93
2024-03-20T00:57:01.782Z,58.83
2024-03-20T00:58:01.797Z,58.53
2024-03-20T00:59:01.869Z,59.30
2024-03-20T01:00:01.924Z,58.23
2024-03-20T01:01:02.038Z,57.69
2024-03-20T01:02:02.088Z,58.14
2024-03-20T01:03:02.194Z,60.54
2024-03-20T01:04:02.234Z,59.09
2024-03-20T01:05:02.333Z,57.28
2024-03-20T01:06:02.402Z,58.68
2024-03-20T01:07:02.474Z,60.05
2024-03-20T01:08:02.527Z,56.91
2024-03-20T01:09:02.686Z,61.01
2024-03-20T01:10:02.694Z,59.17
2024-03-20T01:11:02.800Z,60.67
2024-03-20T01:12:02.850Z,57.40
2024-03-20T01:13:02.943Z,57.62
2024-03-20T01:14:03.033Z,57.62
2024-03-20T01:15:03.108Z,58.55
2024-03-20T01:16:03.184Z,57.93
2024-03-20T01:17:03.227Z,58.92
2024-03-20T01:18:03.298Z,58.50
2024-03-20T01:19:03.361Z,58.14
2024-03-20T01:20:03.458Z,55.53
2024-03-20T01:21:03.529Z,60.72
2024-03-20T01:22:03.562Z,55.86
2024-03-20T01:23:03.688Z,56.42
2024-03-20T01:24:03.744Z,59.25
2024-03-20T01:25:03.840Z,57.58
2024-03-20T01:26:03.900Z,59.77
2024-03-20T01:27:03.977Z,58.07
2024-03-20T01:28:04.046Z,60.37
2024-03-20T01:29:04.099Z,60.12
2024-03-20T01:30:04.198Z,58.98
2024-03-20T01:31:04.254Z,59.28
2024-03-20T01:32:04.366Z,57.12
2024-03-20T01:33:04.425Z,59.28
2024-03-20T01:34:04.517Z,56.67
2024-03-20T01:35:04.579Z,57.33
2024-03-20T01:36:04.661Z,55.71
2024-03-20T01:37:04.754Z,55.73
2024-03-20T01:38:04.822Z,58.51
2024-03-20T01:39:04.919Z,58.43
2024-03-20T01:40:05.007Z,57.11
2024-03-20T01:41:05.085Z,58.16
2024-03-20T01:42:05.120Z,58.85
2024-03-20T01:43:05.165Z,57.92
2024-03-20T01:44:05.259Z,58.86
2024-03-20T01:45:05.324Z,59.30
2024-03-20T01:46:05.422Z,59.08
2024-03-20T01:47:05.489Z,57.68
2024-03-20T01:48:05.563Z,58.23
2024-03-20T01:49:05.635Z,58.53
2024-03-20T01:50:05.710Z,56.19
2024-03-20T01:51:05.796Z,58.47
2024-03-20T01:52:05.850Z,55.77
2024-03-20T01:53:05.902Z,55.27
2024-03-20T01:54:05.982Z,56.91
2024-03-20T01:55:06.100Z,55.52
2024-03-20T01:56:06.483Z,57.59
2024-03-20T01:57:06.242Z,56.28
2024-03-20T01:58:06.338Z,56.73
2024-03-20T01:59:06.379Z,55.54
2024-03-20T02:00:06.447Z,57.26
2024-03-20T02:01:06.512Z,56.44
2024-03-20T02:02:06.588Z,55.27
2024-03-20T02:03:06.653Z,53.64
2024-03-20T02:04:06.743Z,55.07
2024-03-20T02:05:06.796Z,54.88
2024-03-20T02:06:06.903Z,54.64
2024-03-20T02:07:06.965Z,56.54
2024-03-20T02:08:06.994Z,55.37
2024-03-20T02:09:07.100Z,54.16
2024-03-20T02:10:07.204Z,56.74
2024-03-20T02:11:07.239Z,56.58
2024-03-20T02:12:07.318Z,55.61
2024-03-20T02:13:07.349Z,55.40
2024-03-20T02:14:07.442Z,55.70
2024-03-20T02:15:07.622Z,56.02
2024-03-20T02:16:07.658Z,55.80
2024-03-20T02:17:07.674Z,54.50
2024-03-20T02:18:07.800Z,55.18
2024-03-20T02:19:07.818Z,53.42
2024-03-20T02:20:07.936Z,54.46
2024-03-20T02:21:08.017Z,55.27
2024-03-20T02:22:08.105Z,54.81
2024-03-20T02:23:08.202Z,57.25
2024-03-20T02:24:08.247Z,53.91
2024-03-20T02:25:08.313Z,54.02
2024-03-20T02:26:08.422Z,55.69
2024-03-20T02:27:08.467Z,54.88
2024-03-20T02:28:08.647Z,57.07
2024-03-20T02:29:08.629Z,53.05
2024-03-20T02:30:08.757Z,54.68
2024-03-20T02:31:08.809Z,53.15
2024-03-20T02:32:08.871Z,53.11
2024-03-20T02:33:08.961Z,54.40
2024-03-20T02:34:09.039Z,52.75
2024-03-20T02:35:09.149Z,54.72
2024-03-20T02:36:09.210Z,55.63
2024-03-20T02:37:09.263Z,54.43
2024-03-20T02:38:10.045Z,55.08
2024-03-20T02:39:09.425Z,55.47
2024-03-20T02:40:09.545Z,53.39
2024-03-20T02:41:09.592Z,53.86
2024-03-20T02:42:09.659Z,57.03
2024-03-20T02:43:09.726Z,54.97
2024-03-20T02:44:09.816Z,54.75
2024-03-20T02:45:09.927Z,53.42
2024-03-20T02:46:09.997Z,51.86
2024-03-20T02:47:10.039Z,53.20
2024-03-20T02:48:10.101Z,53.70
2024-03-20T02:49:10.233Z,52.16
2024-03-20T02:50:10.277Z,51.40
2024-03-20T02:51:10.382Z,55.05
2024-03-20T02:52:10.452Z,53.81
2024-03-20T02:53:10.546Z,55.91
2024-03-20T02:54:10.608Z,53.57
2024-03-20T02:55:10.684Z,53.06
2024-03-20T02:56:10.786Z,51.63
2024-03-20T02:57:10.854Z,54.67
2024-03-20T02:58:10.959Z,52.13
2024-03-20T02:59:11.024Z,53.46
2024-03-20T03:00:11.117Z,53.53
2024-03-20T03:01:11.155Z,53.50
2024-03-20T03:02:11.358Z,53.62
2024-03-20T03:03:11.335Z,54.93
2024-03-20T03:04:11.470Z,53.69
2024-03-20T03:05:11.510Z,51.69
2024-03-20T03:06:12.072Z,53.37
2024-03-20T03:07:11.688Z,51.79
2024-03-20T03:08:11.780Z,51.67
2024-03-20T03:09:11.821Z,51.65
2024-03-20T03:10:11.956Z,54.38
2024-03-20T03:11:12.070Z,52.87
2024-03-20T03:12:12.061Z,54.45
2024-03-20T03:13:12.158Z,55.00
2024-03-20T03:14:12.238Z,54.04
2024-03-20T03:15:12.238Z,55.56
2024-03-20T03:16:12.278Z,56.37
2024-03-20T03:17:12.363Z,51.54
2024-03-20T03:18:12.404Z,55.14
2024-03-20T03:19:12.513Z,53.34
2024-03-20T03:20:12.581Z,54.12
2024-03-20T03:21:12.625Z,53.30
2024-03-20T03:22:12.703Z,54.01
2024-03-20T03:23:12.823Z,53.00
2024-03-20T03:24:12.855Z,56.05
2024-03-20T03:25:12.966Z,54.38
2024-03-20T03:26:13.010Z,54.69
2024-03-20T03:27:13.089Z,53.00
2024-03-20T03:28:13.208Z,53.88
2024-03-20T03:29:13.258Z,52.70
2024-03-20T03:30:13.378Z,51.32
2024-03-20T03:31:13.489Z,54.02
2024-03-20T03:32:13.529Z,53.09
2024-03-20T03:33:13.593Z,53.17
2024-03-20T03:34:13.700Z,53.94
2024-03-20T03:35:13.764Z,52.73
2024-03-20T03:36:13.810Z,52.22
2024-03-20T03:37:13.848Z,51.64
2024-03-20T03:38:13.938Z,54.45
2024-03-20T03:39:13.979Z,53.31
2024-03-20T03:40:14.053Z,53.08
2024-03-20T03:41:17.241Z,50.00
2024-03-20T03:42:14.083Z,54.41
2024-03-20T03:43:14.129Z,53.92
2024-03-20T03:44:14.125Z,50.66
2024-03-20T03:45:14.115Z,54.08
2024-03-20T03:46:14.128Z,54.70
2024-03-20T03:47:14.215Z,50.00
2024-03-20T03:48:14.144Z,52.84
2024-03-20T03:49:14.169Z,54.87
2024-03-20T03:50:14.172Z,50.82
2024-03-20T03:51:14.225Z,52.53
2024-03-20T03:52:14.232Z,52.21
2024-03-20T03:53:14.241Z,54.01
2024-03-20T03:54:14.252Z,52.61
2024-03-20T03:55:14.251Z,52.64
2024-03-20T03:56:15.098Z,53.88
2024-03-20T03:57:14.277Z,53.27
2024-03-20T03:58:14.282Z,52.14
2024-03-20T03:59:14.293Z,52.44
2024-03-20T04:00:14.340Z,52.75
2024-03-20T04:01:14.342Z,54.17
2024-03-20T04:02:14.307Z,51.87
2024-03-20T04:03:14.372Z,51.79
2024-03-20T04:04:14.357Z,52.84
2024-03-20T04:05:14.367Z,52.07
2024-03-20T04:06:14.388Z,53.25
2024-03-20T04:07:14.374Z,50.99
2024-03-20T04:08:14.402Z,52.60
2024-03-20T04:09:14.385Z,53.55
2024-03-20T04:10:14.428Z,53.91
2024-03-20T04:11:14.398Z,56.49
2024-03-20T04:12:14.405Z,54.03
2024-03-20T04:13:14.436Z,54.40
2024-03-20T04:14:14.463Z,54.75
2024-03-20T04:15:14.448Z,52.82
2024-03-20T04:16:14.505Z,54.30
2024-03-20T04:17:14.569Z,53.76
2024-03-20T04:18:14.520Z,54.10
2024-03-20T04:19:14.539Z,54.41
2024-03-20T04:20:14.543Z,55.29
2024-03-20T04:21:21.724Z,50.00
2024-03-20T04:22:21.739Z,50.00
2024-03-20T04:23:21.728Z,50.00
2024-03-20T04:24:21.747Z,50.00
2024-03-20T04:25:21.712Z,50.00
2024-03-20T04:26:21.708Z,50.00
2024-03-20T04:27:21.688Z,51.26
2024-03-20T04:28:21.692Z,52.38
2024-03-20T04:29:21.679Z,53.83
2024-03-20T04:30:21.670Z,53.00
2024-03-20T04:31:28.890Z,50.00
2024-03-20T04:32:28.893Z,50.00
2024-03-20T04:33:28.879Z,50.00
2024-03-20T04:34:28.912Z,50.00
2024-03-20T04:35:28.941Z,50.00
2024-03-20T04:36:28.925Z,51.89
2024-03-20T04:37:28.903Z,51.67
2024-03-20T04:38:28.911Z,54.58
2024-03-20T04:39:28.963Z,53.54
2024-03-20T04:40:28.932Z,51.57
2024-03-20T04:41:28.964Z,51.83
2024-03-20T04:42:28.936Z,53.06
2024-03-20T04:43:28.905Z,51.58
2024-03-20T04:44:28.914Z,52.19
2024-03-20T04:45:28.962Z,51.95
2024-03-20T04:46:28.921Z,51.08
2024-03-20T04:47:28.948Z,52.16
2024-03-20T04:48:28.999Z,53.12
2024-03-20T04:49:28.940Z,55.22
2024-03-20T04:50:28.980Z,57.14
2024-03-20T04:51:29.015Z,51.66
2024-03-20T04:52:29.004Z,53.47
2024-03-20T04:53:29.040Z,53.66
2024-03-20T04:54:29.006Z,53.38
2024-03-20T04:55:29.059Z,55.75
2024-03-20T04:56:29.096Z,53.74
2024-03-20T04:57:29.174Z,51.35
2024-03-20T04:58:29.221Z,51.31
2024-03-20T04:59:29.281Z,53.57
2024-03-20T05:00:29.354Z,52.01
2024-03-20T05:01:29.393Z,51.49
2024-03-20T05:02:29.402Z,51.90
2024-03-20T05:03:29.469Z,52.94
2024-03-20T05:04:29.572Z,52.95
2024-03-20T05:05:29.628Z,51.80
2024-03-20T05:06:29.725Z,52.44
2024-03-20T05:07:29.781Z,52.60
2024-03-20T05:08:29.846Z,54.84
2024-03-20T05:09:29.912Z,54.63
2024-03-20T05:10:29.970Z,51.62
2024-03-20T05:11:30.009Z,53.41
2024-03-20T05:12:30.086Z,51.08
2024-03-20T05:13:30.119Z,53.38
2024-03-20T05:14:30.181Z,52.14
2024-03-20T05:15:30.278Z,52.69
2024-03-20T05:16:30.282Z,52.19
2024-03-20T05:17:30.335Z,50.97
2024-03-20T05:18:30.421Z,54.59
2024-03-20T05:19:30.439Z,54.15
2024-03-20T05:20:30.489Z,52.17
2024-03-20T05:21:30.543Z,52.67
2024-03-20T05:22:30.598Z,55.45
2024-03-20T05:23:30.656Z,54.91
2024-03-20T05:24:30.691Z,54.75
2024-03-20T05:25:30.700Z,53.55
2024-03-20T05:26:30.723Z,54.55
2024-03-20T05:27:30.777Z,51.97
2024-03-20T05:28:30.864Z,54.52
2024-03-20T05:29:30.925Z,51.87
2024-03-20T05:30:30.941Z,53.55
2024-03-20T05:31:30.975Z,51.92
2024-03-20T05:32:30.948Z,53.48
2024-03-20T05:33:31.061Z,52.13
2024-03-20T05:34:31.015Z,54.11
2024-03-20T05:35:31.069Z,53.46
2024-03-20T05:36:31.155Z,53.88
2024-03-20T05:37:31.111Z,53.13
2024-03-20T05:38:31.188Z,53.32
2024-03-20T05:39:31.195Z,53.12
2024-03-20T05:40:31.242Z,53.58
2024-03-20T05:41:31.360Z,54.38
2024-03-20T05:42:31.440Z,53.05
2024-03-20T05:43:31.499Z,53.62
2024-03-20T05:44:31.536Z,53.49
2024-03-20T05:45:31.623Z,52.29
2024-03-20T05:46:31.652Z,52.06
2024-03-20T05:47:31.665Z,53.57
2024-03-20T05:48:31.686Z,53.11
2024-03-20T05:49:31.672Z,52.96
2024-03-20T05:50:31.722Z,53.59
2024-03-20T05:51:31.750Z,54.80
2024-03-20T05:52:31.735Z,51.62
2024-03-20T05:53:31.733Z,53.81
2024-03-20T05:54:31.850Z,53.89
2024-03-20T05:55:31.861Z,54.77
2024-03-20T05:56:31.896Z,54.72
2024-03-20T05:57:31.955Z,51.68
2024-03-20T05:58:31.988Z,56.16
2024-03-20T05:59:32.065Z,52.97
2024-03-20T06:00:32.170Z,54.54
2024-03-20T06:01:32.169Z,52.86
2024-03-20T06:02:32.212Z,52.99
2024-03-20T06:03:32.288Z,50.25
2024-03-20T06:04:32.355Z,54.25
2024-03-20T06:05:32.398Z,54.23
2024-03-20T06:06:32.486Z,54.71
2024-03-20T06:07:32.529Z,52.99
2024-03-20T06:09:32.578Z,54.88
2024-03-20T06:10:32.602Z,56.03
2024-03-20T06:11:32.652Z,57.38
2024-03-20T06:12:32.617Z,59.33
2024-03-20T06:13:32.661Z,59.40
2024-03-20T06:14:32.617Z,60.98
2024-03-20T06:15:32.633Z,62.17
2024-03-20T06:16:32.687Z,58.40
2024-03-20T06:17:32.646Z,58.76
2024-03-20T06:18:32.673Z,58.01
2024-03-20T06:19:32.653Z,58.06
2024-03-20T06:20:32.653Z,56.37
2024-03-20T06:21:32.678Z,55.20
2024-03-20T06:22:32.648Z,56.00
2024-03-20T06:23:32.669Z,56.67
2024-03-20T06:24:32.653Z,55.00
2024-03-20T06:25:32.671Z,57.94
2024-03-20T06:26:32.691Z,54.98
2024-03-20T06:27:32.676Z,54.18
2024-03-20T06:28:32.693Z,53.24
2024-03-20T06:29:32.690Z,55.66
2024-03-20T06:30:32.705Z,55.42
2024-03-20T06:31:32.720Z,54.08
2024-03-20T06:32:32.719Z,56.25
2024-03-20T06:33:32.757Z,52.98
2024-03-20T06:34:33.784Z,55.14
2024-03-20T06:35:32.718Z,54.47
2024-03-20T06:36:32.731Z,54.77
2024-03-20T06:37:32.754Z,52.58
2024-03-20T06:38:32.725Z,54.18
2024-03-20T06:39:32.732Z,53.88
2024-03-20T06:40:32.739Z,54.10
2024-03-20T06:41:32.746Z,51.99
2024-03-20T06:42:32.818Z,53.38
2024-03-20T06:43:32.728Z,53.40
2024-03-20T06:44:32.728Z,54.66
2024-03-20T06:45:32.773Z,55.64
2024-03-20T06:46:32.779Z,53.50
2024-03-20T06:47:32.744Z,54.10
2024-03-20T06:48:32.748Z,52.21
2024-03-20T06:49:32.746Z,50.50
2024-03-20T06:50:32.755Z,52.74
2024-03-20T06:51:32.783Z,53.74
2024-03-20T06:52:32.751Z,54.59
2024-03-20T06:53:32.752Z,53.81
2024-03-20T06:54:32.775Z,54.50
2024-03-20T06:55:32.836Z,54.16
2024-03-20T06:56:32.905Z,54.54
2024-03-20T06:57:32.958Z,54.07
2024-03-20T06:58:33.012Z,55.86
2024-03-20T06:59:33.073Z,51.97
2024-03-20T07:00:33.263Z,52.77
2024-03-20T07:01:33.181Z,51.25
2024-03-20T07:02:33.243Z,52.35
2024-03-20T07:03:33.337Z,53.58
2024-03-20T07:04:33.381Z,54.09
2024-03-20T07:05:33.438Z,53.81
2024-03-20T07:06:33.513Z,51.96
2024-03-20T07:07:33.565Z,52.82
2024-03-20T07:08:33.652Z,51.85
2024-03-20T07:09:33.688Z,52.76
2024-03-20T07:10:35.234Z,52.82
2024-03-20T07:11:33.779Z,53.47
2024-03-20T07:12:33.829Z,56.16
2024-03-20T07:13:33.847Z,54.42
2024-03-20T07:14:33.890Z,55.61
2024-03-20T07:15:33.940Z,57.32
2024-03-20T07:16:33.983Z,57.13
2024-03-20T07:17:34.027Z,59.32
2024-03-20T07:18:34.082Z,59.97
2024-03-20T07:19:34.148Z,61.55
2024-03-20T07:20:34.179Z,63.87
2024-03-20T07:21:34.254Z,65.14
2024-03-20T07:22:34.265Z,64.51
2024-03-20T07:23:34.292Z,66.00
2024-03-20T07:24:34.354Z,69.57
2024-03-20T07:25:35.830Z,68.88
2024-03-20T07:26:34.365Z,71.21
2024-03-20T07:27:34.343Z,71.10
2024-03-20T07:28:34.308Z,74.38
2024-03-20T07:29:34.321Z,72.67
2024-03-20T07:30:35.054Z,73.81
2024-03-20T07:31:34.330Z,77.12
2024-03-20T07:32:34.321Z,76.16
2024-03-20T07:33:34.326Z,78.63
2024-03-20T07:34:34.293Z,80.37
2024-03-20T07:35:34.297Z,81.22
2024-03-20T07:36:34.327Z,81.70
2024-03-20T07:37:34.288Z,84.38
2024-03-20T07:38:34.289Z,85.26
2024-03-20T07:39:34.303Z,86.75
2024-03-20T07:40:34.278Z,87.93
2024-03-20T07:41:34.254Z,89.99
2024-03-20T07:42:34.288Z,90.24
2024-03-20T07:43:34.346Z,92.03
2024-03-20T07:44:34.342Z,94.32
2024-03-20T07:45:34.268Z,93.12
2024-03-20T07:46:34.235Z,95.46
2024-03-20T07:47:34.223Z,95.62
2024-03-20T07:48:34.208Z,97.41
2024-03-20T07:49:34.207Z,97.26
2024-03-20T07:50:34.254Z,98.41
2024-03-20T07:51:34.209Z,99.26
2024-03-20T07:52:34.200Z,100.34
2024-03-20T07:53:34.172Z,99.90
2024-03-20T07:54:34.213Z,100.98
2024-03-20T07:55:34.213Z,102.66
2024-03-20T07:56:34.267Z,102.95
2024-03-20T07:57:34.193Z,104.90
2024-03-20T07:58:34.136Z,108.58
2024-03-20T07:59:34.146Z,107.35
2024-03-20T08:00:34.162Z,108.40
2024-03-20T08:01:34.168Z,108.30
2024-03-20T08:02:34.131Z,108.54
2024-03-20T08:03:34.143Z,110.11
2024-03-20T08:04:35.080Z,108.60
2024-03-20T08:05:34.081Z,114.70
2024-03-20T08:06:34.174Z,113.90
2024-03-20T08:07:34.095Z,117.11
2024-03-20T08:08:34.061Z,115.46
2024-03-20T08:09:34.096Z,116.60
2024-03-20T08:10:34.047Z,119.53
2024-03-20T08:11:34.079Z,118.69
2024-03-20T08:12:34.063Z,119.91
2024-03-20T08:13:34.049Z,118.65
2024-03-20T08:14:34.037Z,120.45
2024-03-20T08:15:34.032Z,120.28
2024-03-20T08:16:34.863Z,119.55
2024-03-20T08:17:34.012Z,119.30
2024-03-20T08:18:33.996Z,121.26
2024-03-20T08:19:33.998Z,121.67
2024-03-20T08:20:33.952Z,120.36
2024-03-20T08:21:33.987Z,122.81
2024-03-20T08:22:33.972Z,124.11
2024-03-20T08:23:33.943Z,122.28
2024-03-20T08:24:33.951Z,124.21
2024-03-20T08:25:33.917Z,124.18
2024-03-20T08:26:33.958Z,125.14
2024-03-20T08:27:33.938Z,124.02
2024-03-20T08:28:33.942Z,125.52
2024-03-20T08:29:33.925Z,127.85
2024-03-20T08:30:34.035Z,127.14
2024-03-20T08:31:33.926Z,126.07
2024-03-20T08:32:33.952Z,129.75
2024-03-20T08:33:33.934Z,128.03
2024-03-20T08:34:33.889Z,128.47
2024-03-20T08:35:33.963Z,129.30
2024-03-20T08:36:33.948Z,131.07
2024-03-20T08:37:33.909Z,129.10
2024-03-20T08:38:33.882Z,132.53
2024-03-20T08:39:33.937Z,131.64
2024-03-20T08:40:33.864Z,133.87
2024-03-20T08:41:33.869Z,136.11
2024-03-20T08:42:33.872Z,135.83
2024-03-20T08:43:33.869Z,137.46
2024-03-20T08:44:33.870Z,137.76
2024-03-20T08:45:33.894Z,138.13
2024-03-20T08:46:34.063Z,136.51
2024-03-20T08:47:33.892Z,136.60
2024-03-20T08:48:33.909Z,140.79
2024-03-20T08:49:33.889Z,137.20
2024-03-20T08:50:33.901Z,139.05
2024-03-20T08:51:33.915Z,142.16
2024-03-20T08:52:33.950Z,142.73
2024-03-20T08:53:33.920Z,146.18
2024-03-20T08:54:33.930Z,147.41
2024-03-20T08:55:33.957Z,147.76
2024-03-20T08:56:33.991Z,146.52
2024-03-20T08:57:35.202Z,147.56
2024-03-20T08:58:34.557Z,144.08
2024-03-20T08:59:34.061Z,145.39
2024-03-20T09:00:34.129Z,145.61
2024-03-20T09:01:34.202Z,147.13
2024-03-20T09:02:34.162Z,148.96
2024-03-20T09:03:34.212Z,146.28
2024-03-20T09:04:34.276Z,147.17
2024-03-20T09:05:34.350Z,148.52
2024-03-20T09:06:34.420Z,144.88
2024-03-20T09:07:34.463Z,141.93
2024-03-20T09:08:34.503Z,140.53
2024-03-20T09:09:36.423Z,141.05
2024-03-20T09:10:34.652Z,139.93
2024-03-20T09:11:34.805Z,136.94
2024-03-20T09:12:34.800Z,134.79
2024-03-20T09:13:34.848Z,136.54
2024-03-20T09:14:34.994Z,134.40
2024-03-20T09:15:35.059Z,135.99
2024-03-20T09:16:35.065Z,132.78
2024-03-20T09:17:35.113Z,133.26
2024-03-20T09:18:35.232Z,130.59
2024-03-20T09:19:35.230Z,129.47
2024-03-20T09:20:35.309Z,127.29
2024-03-20T09:21:35.424Z,124.82
2024-03-20T09:22:35.434Z,125.51
2024-03-20T09:23:35.490Z,125.79
2024-03-20T09:24:35.800Z,127.07
2024-03-20T09:25:35.645Z,127.47
2024-03-20T09:26:35.678Z,127.96
2024-03-20T09:27:35.731Z,127.27
2024-03-20T09:28:35.755Z,127.78
2024-03-20T09:29:35.810Z,127.65
2024-03-20T09:30:35.888Z,128.36
2024-03-20T09:31:35.990Z,127.24
2024-03-20T09:32:36.126Z,130.29
2024-03-20T09:33:36.110Z,127.46
2024-03-20T09:34:36.161Z,128.20
2024-03-20T09:35:36.232Z,126.66
2024-03-20T09:36:36.310Z,124.84
2024-03-20T09:37:37.367Z,124.86
2024-03-20T09:38:36.303Z,125.05
2024-03-20T09:39:36.313Z,124.53
2024-03-20T09:40:36.291Z,124.41
2024-03-20T09:41:36.313Z,125.58
2024-03-20T09:42:36.318Z,123.49
2024-03-20T09:43:36.308Z,122.03
2024-03-20T09:44:36.317Z,123.22
2024-03-20T09:45:36.401Z,121.45
2024-03-20T09:46:37.389Z,122.08
2024-03-20T09:47:36.513Z,122.59
2024-03-20T09:48:42.356Z,123.15
2024-03-20T09:49:37.612Z,122.13
2024-03-20T09:50:36.634Z,121.33
2024-03-20T09:51:36.652Z,123.40
2024-03-20T09:52:36.624Z,119.66
2024-03-20T09:53:36.612Z,117.08
2024-03-20T09:54:36.634Z,116.57
2024-03-20T09:55:36.630Z,114.44
2024-03-20T09:56:37.094Z,115.18
2024-03-20T09:57:36.699Z,116.54
2024-03-20T09:58:36.661Z,110.10
2024-03-20T09:59:36.679Z,112.04
2024-03-20T10:00:36.698Z,109.04
2024-03-20T10:01:36.689Z,107.47
2024-03-20T10:02:36.700Z,102.90
2024-03-20T10:03:36.706Z,102.62
2024-03-20T10:04:42.541Z,104.81
2024-03-20T10:05:37.725Z,103.56
2024-03-20T10:06:37.085Z,100.71
2024-03-20T10:07:36.714Z,101.98
2024-03-20T10:08:36.729Z,101.45
2024-03-20T10:09:36.747Z,98.42
2024-03-20T10:10:36.736Z,96.66
2024-03-20T10:11:36.740Z,94.68
2024-03-20T10:12:36.733Z,92.55
2024-03-20T10:13:36.733Z,93.58
2024-03-20T10:14:36.777Z,93.66
2024-03-20T10:15:36.868Z,93.97
2024-03-20T10:16:37.117Z,94.54
2024-03-20T10:17:36.925Z,92.87
2024-03-20T10:18:37.007Z,93.76
2024-03-20T10:19:38.051Z,93.89
2024-03-20T10:20:37.076Z,94.34
2024-03-20T10:21:37.047Z,94.97
2024-03-20T10:22:43.257Z,96.13
2024-03-20T10:23:37.988Z,93.97
2024-03-20T10:24:37.003Z,94.99
2024-03-20T10:25:36.995Z,97.70
2024-03-20T10:26:37.012Z,98.62
2024-03-20T10:27:36.994Z,102.14
2024-03-20T10:28:37.001Z,103.76
2024-03-20T10:29:37.000Z,101.69
2024-03-20T10:30:36.995Z,102.70
2024-03-20T10:31:36.979Z,101.06
2024-03-20T10:32:36.995Z,101.04
2024-03-20T10:33:37.051Z,99.12
2024-03-20T10:34:37.171Z,97.32
2024-03-20T10:35:37.166Z,99.25
2024-03-20T10:36:37.590Z,100.12
2024-03-20T10:37:37.322Z,100.19
2024-03-20T10:38:37.402Z,98.40
2024-03-20T10:39:37.453Z,98.67
2024-03-20T10:40:37.504Z,101.13
2024-03-20T10:41:37.616Z,100.72
2024-03-20T10:42:37.743Z,102.15
2024-03-20T10:43:37.732Z,100.85
2024-03-20T10:44:37.784Z,103.65
2024-03-20T10:45:37.854Z,105.86
2024-03-20T10:46:37.891Z,107.49
2024-03-20T10:47:37.961Z,114.48
2024-03-20T10:48:38.051Z,119.35
2024-03-20T10:49:38.056Z,124.65
2024-03-20T10:50:38.085Z,126.08
2024-03-20T10:51:38.634Z,126.71
2024-03-20T10:52:38.210Z,130.20
2024-03-20T10:53:38.226Z,132.36
2024-03-20T10:54:38.277Z,132.64
2024-03-20T10:55:38.332Z,136.09
2024-03-20T10:56:38.335Z,138.84
2024-03-20T10:57:38.422Z,139.93
2024-03-20T10:58:38.452Z,139.18
2024-03-20T10:59:38.472Z,138.03
2024-03-20T11:00:38.540Z,138.96
2024-03-20T11:01:38.585Z,138.20
2024-03-20T11:02:38.642Z,137.92
2024-03-20T11:03:38.704Z,136.77
2024-03-20T11:04:38.731Z,137.79
2024-03-20T11:05:38.775Z,139.66
2024-03-20T11:06:38.826Z,140.94
2024-03-20T11:07:38.865Z,136.82
2024-03-20T11:08:38.900Z,139.87
2024-03-20T11:09:38.988Z,139.21
2024-03-20T11:10:39.119Z,138.59
2024-03-20T11:11:39.099Z,140.16
2024-03-20T11:12:39.167Z,138.67
2024-03-20T11:13:39.199Z,139.00
2024-03-20T11:14:39.249Z,137.27
2024-03-20T11:15:39.324Z,136.20
2024-03-20T11:16:39.361Z,136.98
2024-03-20T11:17:39.524Z,134.71
2024-03-20T11:18:39.510Z,134.67
2024-03-20T11:19:39.713Z,136.01
2024-03-20T11:20:39.628Z,135.59
2024-03-20T11:21:39.691Z,136.51
2024-03-20T11:22:39.724Z,134.90
2024-03-20T11:23:39.785Z,136.15
2024-03-20T11:24:39.854Z,135.68
2024-03-20T11:25:39.895Z,133.66
2024-03-20T11:26:39.945Z,135.08
2024-03-20T11:27:40.046Z,134.88
2024-03-20T11:28:40.091Z,132.46
2024-03-20T11:29:40.142Z,133.38
2024-03-20T11:30:40.183Z,133.38
2024-03-20T11:31:40.246Z,131.71
2024-03-20T11:32:40.324Z,133.49
2024-03-20T11:33:40.370Z,133.15
2024-03-20T11:34:40.437Z,132.49
2024-03-20T11:35:40.511Z,132.35
2024-03-20T11:36:40.610Z,132.80
2024-03-20T11:37:40.598Z,130.93
2024-03-20T11:38:40.667Z,132.14
2024-03-20T11:39:40.752Z,131.02
2024-03-20T11:40:40.797Z,131.67
2024-03-20T11:41:41.109Z,129.86
2024-03-20T11:42:40.917Z,131.27
2024-03-20T11:43:40.982Z,129.64
2024-03-20T11:44:41.026Z,129.27
2024-03-20T11:45:41.122Z,128.72
2024-03-20T11:46:41.188Z,127.58
2024-03-20T11:47:41.255Z,128.96
2024-03-20T11:48:41.267Z,128.59
2024-03-20T11:49:41.300Z,127.88
2024-03-20T11:50:41.366Z,126.93
2024-03-20T11:51:41.498Z,127.40
2024-03-20T11:52:41.517Z,126.13
2024-03-20T11:53:41.562Z,125.97
2024-03-20T11:54:41.669Z,124.89
2024-03-20T11:55:41.717Z,126.21
2024-03-20T11:56:41.760Z,123.16
2024-03-20T11:57:41.852Z,123.63
2024-03-20T11:58:41.871Z,124.32
2024-03-20T11:59:41.943Z,124.37
2024-03-20T12:00:42.031Z,125.30
2024-03-20T12:01:42.159Z,122.57
2024-03-20T12:02:42.145Z,122.60
2024-03-20T12:03:42.225Z,121.30
2024-03-20T12:04:42.282Z,121.52
2024-03-20T12:05:42.338Z,123.58
2024-03-20T12:06:42.424Z,124.69
2024-03-20T12:07:42.480Z,122.80
2024-03-20T12:08:42.527Z,123.26
2024-03-20T12:09:42.645Z,122.31
2024-03-20T12:10:42.633Z,123.35
2024-03-20T12:11:42.741Z,122.75
2024-03-20T12:12:42.768Z,121.99
2024-03-20T12:13:42.841Z,123.93
2024-03-20T12:14:42.896Z,122.05
2024-03-20T12:15:42.966Z,122.57
2024-03-20T12:16:43.049Z,121.78
2024-03-20T12:17:43.090Z,121.92
2024-03-20T12:18:43.181Z,122.13
2024-03-20T12:19:43.212Z,122.62
2024-03-20T12:20:43.256Z,122.07
2024-03-20T12:21:43.325Z,121.90
2024-03-20T12:22:43.374Z,121.87
2024-03-20T12:23:43.469Z,121.79
2024-03-20T12:24:43.492Z,119.52
2024-03-20T12:25:43.567Z,121.76
2024-03-20T12:26:43.644Z,119.37
2024-03-20T12:27:43.715Z,119.73
2024-03-20T12:28:43.806Z,120.45
2024-03-20T12:29:43.831Z,121.62
2024-03-20T12:30:44.633Z,120.29
2024-03-20T12:31:43.947Z,120.54
2024-03-20T12:32:44.001Z,120.04
2024-03-20T12:33:44.066Z,121.47
2024-03-20T12:34:44.112Z,120.63
2024-03-20T12:35:44.191Z,119.28
2024-03-20T12:36:44.659Z,120.40
2024-03-20T12:37:44.291Z,119.62
2024-03-20T12:38:44.317Z,120.42
2024-03-20T12:39:44.476Z,119.84
2024-03-20T12:40:44.473Z,118.56
2024-03-20T12:41:44.525Z,120.89
2024-03-20T12:42:44.635Z,119.82
2024-03-20T12:43:44.648Z,121.38
2024-03-20T12:44:44.668Z,118.91
2024-03-20T12:45:44.791Z,121.71